sensor_id;sensor_type;location;lat;lon;timestamp;temperature;humidity
48752;DHT22;34544;48.836;9.174;2023-05-10T00:01:48;14.60;99.90
48752;DHT22;34544;48.836;9.174;2023-05-10T00:04:13;14.50;99.90
48752;DHT22;34544;48.836;9.174;2023-05-10T00:06:39;14.40;99.90
48752;DHT22;34544;48.836;9.174;2023-05-10T00:09:05;14.20;99.90
48752;DHT22;34544;48.836;9.174;2023-05-10T00:11:30;14.20;99.90
48752;DHT22;34544;48.836;9.174;2023-05-10T00:13:56;14.20;99.90
48752;DHT22;34544;48.836;9.174;2023-05-10T00:16:22;14.10;99.90
48752;DHT22;34544;48.836;9.174;2023-05-10T00:18:48;14.10;99.90
48752;DHT22;34544;48.836;9.174;2023-05-10T00:21:13;14.00;99.90
48752;DHT22;34544;48.836;9.174;2023-05-10T00:23:39;14.00;99.90
48752;DHT22;34544;48.836;9.174;2023-05-10T00:26:05;14.00;99.90
48752;DHT22;34544;48.836;9.174;2023-05-10T00:28:30;14.00;99.90
48752;DHT22;34544;48.836;9.174;2023-05-10T00:30:56;13.90;99.90
48752;DHT22;34544;48.836;9.174;2023-05-10T00:33:22;14.00;99.90
48752;DHT22;34544;48.836;9.174;2023-05-10T00:35:47;13.90;99.90
48752;DHT22;34544;48.836;9.174;2023-05-10T00:38:14;13.90;99.90
48752;DHT22;34544;48.836;9.174;2023-05-10T00:40:40;13.90;99.90
48752;DHT22;34544;48.836;9.174;2023-05-10T00:43:12;13.80;99.90
48752;DHT22;34544;48.836;9.174;2023-05-10T00:45:40;13.70;99.90
48752;DHT22;34544;48.836;9.174;2023-05-10T00:48:06;13.80;99.90
48752;DHT22;34544;48.836;9.174;2023-05-10T00:50:33;13.70;99.90
48752;DHT22;34544;48.836;9.174;2023-05-10T00:52:59;13.60;99.90
48752;DHT22;34544;48.836;9.174;2023-05-10T00:55:26;13.60;99.90
48752;DHT22;34544;48.836;9.174;2023-05-10T00:57:52;13.70;99.90
48752;DHT22;34544;48.836;9.174;2023-05-10T01:00:18;13.60;99.90
48752;DHT22;34544;48.836;9.174;2023-05-10T01:02:45;13.70;99.90
48752;DHT22;34544;48.836;9.174;2023-05-10T01:05:11;13.50;99.90
48752;DHT22;34544;48.836;9.174;2023-05-10T01:07:37;13.50;99.90
48752;DHT22;34544;48.836;9.174;2023-05-10T01:10:04;13.50;99.90
48752;DHT22;34544;48.836;9.174;2023-05-10T01:12:30;13.50;99.90
48752;DHT22;34544;48.836;9.174;2023-05-10T01:14:56;13.50;99.90
48752;DHT22;34544;48.836;9.174;2023-05-10T01:17:23;13.50;99.90
48752;DHT22;34544;48.836;9.174;2023-05-10T01:19:49;13.50;99.90
48752;DHT22;34544;48.836;9.174;2023-05-10T01:31:21;13.40;99.90
48752;DHT22;34544;48.836;9.174;2023-05-10T01:34:09;13.40;99.90
48752;DHT22;34544;48.836;9.174;2023-05-10T01:36:52;13.40;99.90
48752;DHT22;34544;48.836;9.174;2023-05-10T01:39:29;13.40;99.90
48752;DHT22;34544;48.836;9.174;2023-05-10T01:42:08;13.40;99.90
48752;DHT22;34544;48.836;9.174;2023-05-10T01:47:43;13.40;99.90
48752;DHT22;34544;48.836;9.174;2023-05-10T01:50:15;13.40;99.90
48752;DHT22;34544;48.836;9.174;2023-05-10T01:52:46;13.20;99.90
48752;DHT22;34544;48.836;9.174;2023-05-10T01:55:16;13.30;99.90
48752;DHT22;34544;48.836;9.174;2023-05-10T01:57:44;13.30;99.90
48752;DHT22;34544;48.836;9.174;2023-05-10T02:00:12;13.30;99.90
48752;DHT22;34544;48.836;9.174;2023-05-10T02:02:45;13.40;99.90
48752;DHT22;34544;48.836;9.174;2023-05-10T02:05:13;13.30;99.90
48752;DHT22;34544;48.836;9.174;2023-05-10T02:07:40;13.30;99.90
48752;DHT22;34544;48.836;9.174;2023-05-10T02:10:09;13.30;99.90
48752;DHT22;34544;48.836;9.174;2023-05-10T02:12:36;13.30;99.90
48752;DHT22;34544;48.836;9.174;2023-05-10T02:15:05;13.30;99.90
48752;DHT22;34544;48.836;9.174;2023-05-10T02:17:37;13.30;99.90
48752;DHT22;34544;48.836;9.174;2023-05-10T02:22:34;13.00;99.90
48752;DHT22;34544;48.836;9.174;2023-05-10T02:25:01;13.10;99.90
48752;DHT22;34544;48.836;9.174;2023-05-10T02:27:29;13.10;99.90
48752;DHT22;34544;48.836;9.174;2023-05-10T02:29:56;13.10;99.90
48752;DHT22;34544;48.836;9.174;2023-05-10T02:32:25;13.00;99.90
48752;DHT22;34544;48.836;9.174;2023-05-10T02:34:52;13.10;99.90
48752;DHT22;34544;48.836;9.174;2023-05-10T02:37:19;13.00;99.90
48752;DHT22;34544;48.836;9.174;2023-05-10T02:39:54;13.00;99.90
48752;DHT22;34544;48.836;9.174;2023-05-10T02:42:24;13.00;99.90
48752;DHT22;34544;48.836;9.174;2023-05-10T02:44:54;13.10;99.90
48752;DHT22;34544;48.836;9.174;2023-05-10T02:47:20;13.10;99.90
48752;DHT22;34544;48.836;9.174;2023-05-10T02:49:46;13.10;99.90
48752;DHT22;34544;48.836;9.174;2023-05-10T02:52:18;13.10;99.90
48752;DHT22;34544;48.836;9.174;2023-05-10T02:54:50;13.10;99.90
48752;DHT22;34544;48.836;9.174;2023-05-10T02:57:28;13.20;99.90
48752;DHT22;34544;48.836;9.174;2023-05-10T02:59:57;13.20;99.90
48752;DHT22;34544;48.836;9.174;2023-05-10T03:02:23;13.20;99.90
48752;DHT22;34544;48.836;9.174;2023-05-10T03:04:48;13.20;99.90
48752;DHT22;34544;48.836;9.174;2023-05-10T03:07:14;13.20;99.90
48752;DHT22;34544;48.836;9.174;2023-05-10T03:09:40;13.20;99.90
48752;DHT22;34544;48.836;9.174;2023-05-10T03:15:00;13.20;99.90
48752;DHT22;34544;48.836;9.174;2023-05-10T03:17:39;13.20;99.90
48752;DHT22;34544;48.836;9.174;2023-05-10T03:20:09;13.20;99.90
48752;DHT22;34544;48.836;9.174;2023-05-10T03:22:40;13.30;99.90
48752;DHT22;34544;48.836;9.174;2023-05-10T03:25:10;13.30;99.90
48752;DHT22;34544;48.836;9.174;2023-05-10T03:27:40;13.30;99.90
48752;DHT22;34544;48.836;9.174;2023-05-10T03:30:11;13.30;99.90
48752;DHT22;34544;48.836;9.174;2023-05-10T03:32:38;13.30;99.90
48752;DHT22;34544;48.836;9.174;2023-05-10T03:35:08;13.30;99.90
48752;DHT22;34544;48.836;9.174;2023-05-10T03:37:34;13.30;99.90
48752;DHT22;34544;48.836;9.174;2023-05-10T03:40:00;13.30;99.90
48752;DHT22;34544;48.836;9.174;2023-05-10T03:42:26;13.30;99.90
48752;DHT22;34544;48.836;9.174;2023-05-10T03:44:52;13.30;99.90
48752;DHT22;34544;48.836;9.174;2023-05-10T03:47:17;13.20;99.90
48752;DHT22;34544;48.836;9.174;2023-05-10T03:49:43;13.20;99.90
48752;DHT22;34544;48.836;9.174;2023-05-10T03:52:11;13.20;99.90
48752;DHT22;34544;48.836;9.174;2023-05-10T03:54:37;13.20;99.90
48752;DHT22;34544;48.836;9.174;2023-05-10T03:57:03;13.30;99.90
48752;DHT22;34544;48.836;9.174;2023-05-10T03:59:29;13.30;99.90
48752;DHT22;34544;48.836;9.174;2023-05-10T04:01:56;13.30;99.90
48752;DHT22;34544;48.836;9.174;2023-05-10T04:04:22;13.30;99.90
48752;DHT22;34544;48.836;9.174;2023-05-10T04:06:49;13.20;99.90
48752;DHT22;34544;48.836;9.174;2023-05-10T04:09:15;13.30;99.90
48752;DHT22;34544;48.836;9.174;2023-05-10T04:11:42;13.20;99.90
48752;DHT22;34544;48.836;9.174;2023-05-10T04:14:07;13.30;99.90
48752;DHT22;34544;48.836;9.174;2023-05-10T04:16:33;13.30;99.90
48752;DHT22;34544;48.836;9.174;2023-05-10T04:18:59;13.30;99.90
48752;DHT22;34544;48.836;9.174;2023-05-10T04:21:25;13.30;99.90
48752;DHT22;34544;48.836;9.174;2023-05-10T04:23:51;13.30;99.90
48752;DHT22;34544;48.836;9.174;2023-05-10T04:26:16;13.30;99.90
48752;DHT22;34544;48.836;9.174;2023-05-10T04:28:42;13.30;99.90
48752;DHT22;34544;48.836;9.174;2023-05-10T04:31:09;13.30;99.90
48752;DHT22;34544;48.836;9.174;2023-05-10T04:33:36;13.40;99.90
48752;DHT22;34544;48.836;9.174;2023-05-10T04:36:02;13.40;99.90
48752;DHT22;34544;48.836;9.174;2023-05-10T04:38:28;13.40;99.90
48752;DHT22;34544;48.836;9.174;2023-05-10T04:40:54;13.30;99.90
48752;DHT22;34544;48.836;9.174;2023-05-10T04:43:20;13.30;99.90
48752;DHT22;34544;48.836;9.174;2023-05-10T04:45:46;13.40;99.90
48752;DHT22;34544;48.836;9.174;2023-05-10T04:48:11;13.40;99.90
48752;DHT22;34544;48.836;9.174;2023-05-10T04:50:38;13.30;99.90
48752;DHT22;34544;48.836;9.174;2023-05-10T04:53:04;13.40;99.90
48752;DHT22;34544;48.836;9.174;2023-05-10T04:55:30;13.40;99.90
48752;DHT22;34544;48.836;9.174;2023-05-10T04:57:56;13.40;99.90
48752;DHT22;34544;48.836;9.174;2023-05-10T05:00:23;13.50;99.90
48752;DHT22;34544;48.836;9.174;2023-05-10T05:02:48;13.50;99.90
48752;DHT22;34544;48.836;9.174;2023-05-10T05:05:14;13.50;99.90
48752;DHT22;34544;48.836;9.174;2023-05-10T05:07:40;13.50;99.90
48752;DHT22;34544;48.836;9.174;2023-05-10T05:10:06;13.60;99.90
48752;DHT22;34544;48.836;9.174;2023-05-10T05:12:32;13.60;99.90
48752;DHT22;34544;48.836;9.174;2023-05-10T05:14:58;13.60;99.90
48752;DHT22;34544;48.836;9.174;2023-05-10T05:17:24;13.70;99.90
48752;DHT22;34544;48.836;9.174;2023-05-10T05:19:49;13.70;99.90
48752;DHT22;34544;48.836;9.174;2023-05-10T05:22:15;13.80;99.90
48752;DHT22;34544;48.836;9.174;2023-05-10T05:24:41;13.80;99.90
48752;DHT22;34544;48.836;9.174;2023-05-10T05:27:06;13.90;99.90
48752;DHT22;34544;48.836;9.174;2023-05-10T05:29:32;14.00;99.90
48752;DHT22;34544;48.836;9.174;2023-05-10T05:31:58;14.00;99.90
48752;DHT22;34544;48.836;9.174;2023-05-10T05:34:24;14.00;99.90
48752;DHT22;34544;48.836;9.174;2023-05-10T05:36:49;14.10;99.90
48752;DHT22;34544;48.836;9.174;2023-05-10T05:39:15;14.20;99.90
48752;DHT22;34544;48.836;9.174;2023-05-10T05:41:41;14.20;99.90
48752;DHT22;34544;48.836;9.174;2023-05-10T05:44:07;14.20;99.90
48752;DHT22;34544;48.836;9.174;2023-05-10T05:46:33;14.30;99.90
48752;DHT22;34544;48.836;9.174;2023-05-10T05:48:59;14.30;99.90
48752;DHT22;34544;48.836;9.174;2023-05-10T05:51:24;14.40;99.90
48752;DHT22;34544;48.836;9.174;2023-05-10T05:53:50;14.50;99.90
48752;DHT22;34544;48.836;9.174;2023-05-10T05:56:16;14.60;99.90
48752;DHT22;34544;48.836;9.174;2023-05-10T05:58:43;14.60;99.90
48752;DHT22;34544;48.836;9.174;2023-05-10T06:01:09;14.70;99.90
48752;DHT22;34544;48.836;9.174;2023-05-10T06:03:35;14.70;99.90
48752;DHT22;34544;48.836;9.174;2023-05-10T06:06:01;14.70;99.90
48752;DHT22;34544;48.836;9.174;2023-05-10T06:08:26;14.70;99.90
48752;DHT22;34544;48.836;9.174;2023-05-10T06:10:52;14.70;99.90
48752;DHT22;34544;48.836;9.174;2023-05-10T06:13:17;14.70;99.90
48752;DHT22;34544;48.836;9.174;2023-05-10T06:15:43;14.70;99.90
48752;DHT22;34544;48.836;9.174;2023-05-10T06:18:09;14.70;99.90
48752;DHT22;34544;48.836;9.174;2023-05-10T06:20:34;14.70;99.90
48752;DHT22;34544;48.836;9.174;2023-05-10T06:23:00;14.80;99.90
48752;DHT22;34544;48.836;9.174;2023-05-10T06:25:26;14.80;99.90
48752;DHT22;34544;48.836;9.174;2023-05-10T06:27:51;14.90;99.90
48752;DHT22;34544;48.836;9.174;2023-05-10T06:30:23;14.80;99.90
48752;DHT22;34544;48.836;9.174;2023-05-10T06:32:52;14.90;99.90
48752;DHT22;34544;48.836;9.174;2023-05-10T06:35:19;14.90;99.90
48752;DHT22;34544;48.836;9.174;2023-05-10T06:37:44;14.80;99.90
48752;DHT22;34544;48.836;9.174;2023-05-10T06:40:10;14.80;99.90
48752;DHT22;34544;48.836;9.174;2023-05-10T06:42:36;14.90;99.90
48752;DHT22;34544;48.836;9.174;2023-05-10T06:45:02;14.90;99.90
48752;DHT22;34544;48.836;9.174;2023-05-10T06:47:28;14.80;99.90
48752;DHT22;34544;48.836;9.174;2023-05-10T06:49:53;14.90;99.90
48752;DHT22;34544;48.836;9.174;2023-05-10T06:52:19;14.90;99.90
48752;DHT22;34544;48.836;9.174;2023-05-10T06:54:45;14.90;99.90
48752;DHT22;34544;48.836;9.174;2023-05-10T06:57:10;15.00;99.90
48752;DHT22;34544;48.836;9.174;2023-05-10T06:59:36;15.00;99.90
48752;DHT22;34544;48.836;9.174;2023-05-10T07:02:02;15.00;99.90
48752;DHT22;34544;48.836;9.174;2023-05-10T07:04:27;15.00;99.90
48752;DHT22;34544;48.836;9.174;2023-05-10T07:06:53;15.10;99.90
48752;DHT22;34544;48.836;9.174;2023-05-10T07:09:19;15.20;99.90
48752;DHT22;34544;48.836;9.174;2023-05-10T07:11:44;15.30;99.90
48752;DHT22;34544;48.836;9.174;2023-05-10T07:14:10;15.30;99.90
48752;DHT22;34544;48.836;9.174;2023-05-10T07:16:36;15.30;99.90
48752;DHT22;34544;48.836;9.174;2023-05-10T07:19:01;15.40;99.90
48752;DHT22;34544;48.836;9.174;2023-05-10T07:21:27;15.40;99.90
48752;DHT22;34544;48.836;9.174;2023-05-10T07:23:54;15.50;99.90
48752;DHT22;34544;48.836;9.174;2023-05-10T07:26:20;15.50;99.90
48752;DHT22;34544;48.836;9.174;2023-05-10T07:28:47;15.50;99.90
48752;DHT22;34544;48.836;9.174;2023-05-10T07:31:13;15.50;99.90
48752;DHT22;34544;48.836;9.174;2023-05-10T07:33:38;15.60;99.90
48752;DHT22;34544;48.836;9.174;2023-05-10T07:36:04;15.60;99.90
48752;DHT22;34544;48.836;9.174;2023-05-10T07:38:30;15.70;99.90
48752;DHT22;34544;48.836;9.174;2023-05-10T07:40:55;15.80;99.90
48752;DHT22;34544;48.836;9.174;2023-05-10T07:43:21;15.90;99.90
48752;DHT22;34544;48.836;9.174;2023-05-10T07:45:46;15.90;99.90
48752;DHT22;34544;48.836;9.174;2023-05-10T07:48:12;15.90;99.90
48752;DHT22;34544;48.836;9.174;2023-05-10T07:50:38;16.10;99.90
48752;DHT22;34544;48.836;9.174;2023-05-10T07:53:03;16.20;99.90
48752;DHT22;34544;48.836;9.174;2023-05-10T07:57:55;16.40;99.90
48752;DHT22;34544;48.836;9.174;2023-05-10T08:00:21;16.50;99.90
48752;DHT22;34544;48.836;9.174;2023-05-10T08:02:47;16.50;99.90
48752;DHT22;34544;48.836;9.174;2023-05-10T08:05:13;16.60;99.90
48752;DHT22;34544;48.836;9.174;2023-05-10T08:07:39;16.30;99.90
48752;DHT22;34544;48.836;9.174;2023-05-10T08:10:05;16.40;99.90
48752;DHT22;34544;48.836;9.174;2023-05-10T08:12:31;16.30;99.90
48752;DHT22;34544;48.836;9.174;2023-05-10T08:14:57;16.20;99.90
48752;DHT22;34544;48.836;9.174;2023-05-10T08:17:23;16.10;99.90
48752;DHT22;34544;48.836;9.174;2023-05-10T08:19:48;16.20;99.90
48752;DHT22;34544;48.836;9.174;2023-05-10T08:22:14;16.20;99.90
48752;DHT22;34544;48.836;9.174;2023-05-10T08:24:40;16.20;99.90
48752;DHT22;34544;48.836;9.174;2023-05-10T08:27:08;16.30;99.90
48752;DHT22;34544;48.836;9.174;2023-05-10T08:29:34;16.40;99.90
48752;DHT22;34544;48.836;9.174;2023-05-10T08:32:00;16.30;99.90
48752;DHT22;34544;48.836;9.174;2023-05-10T08:34:26;16.30;99.90
48752;DHT22;34544;48.836;9.174;2023-05-10T08:36:52;16.40;99.90
48752;DHT22;34544;48.836;9.174;2023-05-10T08:39:18;16.50;99.90
48752;DHT22;34544;48.836;9.174;2023-05-10T08:41:44;16.50;99.90
48752;DHT22;34544;48.836;9.174;2023-05-10T08:44:10;16.60;99.90
48752;DHT22;34544;48.836;9.174;2023-05-10T08:46:37;16.70;99.90
48752;DHT22;34544;48.836;9.174;2023-05-10T08:49:06;16.70;99.90
48752;DHT22;34544;48.836;9.174;2023-05-10T08:54:03;17.10;99.90
48752;DHT22;34544;48.836;9.174;2023-05-10T08:56:29;16.90;99.90
48752;DHT22;34544;48.836;9.174;2023-05-10T08:58:56;17.00;99.90
48752;DHT22;34544;48.836;9.174;2023-05-10T09:01:22;17.00;99.90
48752;DHT22;34544;48.836;9.174;2023-05-10T09:03:48;17.20;99.90
48752;DHT22;34544;48.836;9.174;2023-05-10T09:06:14;17.40;99.90
48752;DHT22;34544;48.836;9.174;2023-05-10T09:08:42;17.50;99.90
48752;DHT22;34544;48.836;9.174;2023-05-10T09:13:36;17.90;99.90
48752;DHT22;34544;48.836;9.174;2023-05-10T09:16:03;18.00;99.90
48752;DHT22;34544;48.836;9.174;2023-05-10T09:18:28;18.20;99.90
48752;DHT22;34544;48.836;9.174;2023-05-10T09:20:54;18.50;99.90
48752;DHT22;34544;48.836;9.174;2023-05-10T09:23:20;18.60;99.90
48752;DHT22;34544;48.836;9.174;2023-05-10T09:25:46;18.20;99.90
48752;DHT22;34544;48.836;9.174;2023-05-10T09:28:12;18.30;99.90
48752;DHT22;34544;48.836;9.174;2023-05-10T09:30:38;18.20;99.90
48752;DHT22;34544;48.836;9.174;2023-05-10T09:33:03;18.20;99.90
48752;DHT22;34544;48.836;9.174;2023-05-10T09:35:31;18.20;99.90
48752;DHT22;34544;48.836;9.174;2023-05-10T09:38:00;18.30;99.90
48752;DHT22;34544;48.836;9.174;2023-05-10T09:40:27;18.40;99.90
48752;DHT22;34544;48.836;9.174;2023-05-10T09:43:03;18.40;99.90
48752;DHT22;34544;48.836;9.174;2023-05-10T09:45:31;18.40;99.90
48752;DHT22;34544;48.836;9.174;2023-05-10T09:47:58;18.30;99.90
48752;DHT22;34544;48.836;9.174;2023-05-10T09:50:24;18.30;99.90
48752;DHT22;34544;48.836;9.174;2023-05-10T09:53:02;18.20;99.90
48752;DHT22;34544;48.836;9.174;2023-05-10T09:55:42;18.00;99.90
48752;DHT22;34544;48.836;9.174;2023-05-10T09:58:12;17.70;99.90
48752;DHT22;34544;48.836;9.174;2023-05-10T10:00:42;17.50;99.90
48752;DHT22;34544;48.836;9.174;2023-05-10T10:03:13;17.50;99.90
48752;DHT22;34544;48.836;9.174;2023-05-10T10:05:40;17.60;99.90
48752;DHT22;34544;48.836;9.174;2023-05-10T10:08:06;17.60;99.90
48752;DHT22;34544;48.836;9.174;2023-05-10T10:10:33;17.60;99.90
48752;DHT22;34544;48.836;9.174;2023-05-10T10:12:59;17.60;99.90
48752;DHT22;34544;48.836;9.174;2023-05-10T10:15:26;17.70;99.90
48752;DHT22;34544;48.836;9.174;2023-05-10T10:17:52;17.70;99.90
48752;DHT22;34544;48.836;9.174;2023-05-10T10:20:20;17.80;99.90
48752;DHT22;34544;48.836;9.174;2023-05-10T10:22:46;17.90;99.90
48752;DHT22;34544;48.836;9.174;2023-05-10T10:25:16;18.00;99.90
48752;DHT22;34544;48.836;9.174;2023-05-10T10:30:33;18.10;99.90
48752;DHT22;34544;48.836;9.174;2023-05-10T10:33:30;18.30;99.90
48752;DHT22;34544;48.836;9.174;2023-05-10T10:36:00;18.40;99.90
48752;DHT22;34544;48.836;9.174;2023-05-10T10:38:57;18.50;99.90
48752;DHT22;34544;48.836;9.174;2023-05-10T10:41:39;18.40;99.90
48752;DHT22;34544;48.836;9.174;2023-05-10T10:52:25;18.40;99.90
48752;DHT22;34544;48.836;9.174;2023-05-10T10:55:02;18.90;99.90
48752;DHT22;34544;48.836;9.174;2023-05-10T10:57:31;19.20;99.90
48752;DHT22;34544;48.836;9.174;2023-05-10T11:00:23;19.50;99.90
48752;DHT22;34544;48.836;9.174;2023-05-10T11:03:10;19.60;99.90
48752;DHT22;34544;48.836;9.174;2023-05-10T11:05:42;19.70;99.90
48752;DHT22;34544;48.836;9.174;2023-05-10T11:08:16;19.90;99.90
48752;DHT22;34544;48.836;9.174;2023-05-10T11:10:51;20.30;99.90
48752;DHT22;34544;48.836;9.174;2023-05-10T11:13:31;20.00;99.90
48752;DHT22;34544;48.836;9.174;2023-05-10T11:15:57;19.90;99.90
48752;DHT22;34544;48.836;9.174;2023-05-10T11:18:28;19.70;99.90
48752;DHT22;34544;48.836;9.174;2023-05-10T11:21:00;19.70;99.90
48752;DHT22;34544;48.836;9.174;2023-05-10T11:26:08;19.40;99.90
48752;DHT22;34544;48.836;9.174;2023-05-10T11:28:41;18.80;99.90
48752;DHT22;34544;48.836;9.174;2023-05-10T11:31:06;18.90;99.90
48752;DHT22;34544;48.836;9.174;2023-05-10T11:33:43;18.70;99.90
48752;DHT22;34544;48.836;9.174;2023-05-10T11:36:14;18.50;99.90
48752;DHT22;34544;48.836;9.174;2023-05-10T11:38:40;18.70;99.90
48752;DHT22;34544;48.836;9.174;2023-05-10T11:41:07;18.90;99.90
48752;DHT22;34544;48.836;9.174;2023-05-10T11:43:33;19.20;99.90
48752;DHT22;34544;48.836;9.174;2023-05-10T11:45:59;19.10;99.90
48752;DHT22;34544;48.836;9.174;2023-05-10T11:48:26;19.30;99.90
48752;DHT22;34544;48.836;9.174;2023-05-10T11:50:52;19.60;99.90
48752;DHT22;34544;48.836;9.174;2023-05-10T11:53:20;19.40;99.90
48752;DHT22;34544;48.836;9.174;2023-05-10T11:55:47;19.30;99.90
48752;DHT22;34544;48.836;9.174;2023-05-10T11:58:13;19.10;99.90
48752;DHT22;34544;48.836;9.174;2023-05-10T12:00:39;19.10;99.90
48752;DHT22;34544;48.836;9.174;2023-05-10T12:03:05;18.90;99.90
48752;DHT22;34544;48.836;9.174;2023-05-10T12:05:34;18.80;99.90
48752;DHT22;34544;48.836;9.174;2023-05-10T12:08:14;18.70;99.90
48752;DHT22;34544;48.836;9.174;2023-05-10T12:10:41;18.40;99.90
48752;DHT22;34544;48.836;9.174;2023-05-10T12:13:14;18.30;99.90
48752;DHT22;34544;48.836;9.174;2023-05-10T12:15:41;18.10;99.90
48752;DHT22;34544;48.836;9.174;2023-05-10T12:18:11;18.00;99.90
48752;DHT22;34544;48.836;9.174;2023-05-10T12:20:37;17.90;99.90
48752;DHT22;34544;48.836;9.174;2023-05-10T12:23:03;17.70;99.90
48752;DHT22;34544;48.836;9.174;2023-05-10T12:25:35;17.80;99.90
48752;DHT22;34544;48.836;9.174;2023-05-10T12:28:04;17.60;99.90
48752;DHT22;34544;48.836;9.174;2023-05-10T12:30:32;17.60;99.90
48752;DHT22;34544;48.836;9.174;2023-05-10T12:33:02;17.60;99.90
48752;DHT22;34544;48.836;9.174;2023-05-10T12:35:32;17.80;99.90
48752;DHT22;34544;48.836;9.174;2023-05-10T12:37:58;17.80;99.90
48752;DHT22;34544;48.836;9.174;2023-05-10T12:40:24;17.80;99.90
48752;DHT22;34544;48.836;9.174;2023-05-10T12:42:50;18.00;99.90
48752;DHT22;34544;48.836;9.174;2023-05-10T12:45:17;18.10;99.90
48752;DHT22;34544;48.836;9.174;2023-05-10T12:47:43;18.30;99.90
48752;DHT22;34544;48.836;9.174;2023-05-10T12:50:09;18.40;99.90
48752;DHT22;34544;48.836;9.174;2023-05-10T12:52:35;18.20;99.90
48752;DHT22;34544;48.836;9.174;2023-05-10T12:55:00;18.30;99.90
48752;DHT22;34544;48.836;9.174;2023-05-10T12:57:27;18.40;99.90
48752;DHT22;34544;48.836;9.174;2023-05-10T12:59:54;18.40;99.90
48752;DHT22;34544;48.836;9.174;2023-05-10T13:02:19;18.20;99.90
48752;DHT22;34544;48.836;9.174;2023-05-10T13:04:46;18.40;99.90
48752;DHT22;34544;48.836;9.174;2023-05-10T13:07:12;18.60;99.90
48752;DHT22;34544;48.836;9.174;2023-05-10T13:09:38;18.70;99.90
48752;DHT22;34544;48.836;9.174;2023-05-10T13:12:04;18.60;99.90
48752;DHT22;34544;48.836;9.174;2023-05-10T13:14:30;18.50;99.90
48752;DHT22;34544;48.836;9.174;2023-05-10T13:16:56;18.40;99.90
48752;DHT22;34544;48.836;9.174;2023-05-10T13:19:22;18.10;99.90
48752;DHT22;34544;48.836;9.174;2023-05-10T13:21:48;17.90;99.90
48752;DHT22;34544;48.836;9.174;2023-05-10T13:24:13;17.70;99.90
48752;DHT22;34544;48.836;9.174;2023-05-10T13:26:40;17.70;99.90
48752;DHT22;34544;48.836;9.174;2023-05-10T13:29:06;17.60;99.90
48752;DHT22;34544;48.836;9.174;2023-05-10T13:33:58;17.60;99.90
48752;DHT22;34544;48.836;9.174;2023-05-10T13:36:24;17.60;99.90
48752;DHT22;34544;48.836;9.174;2023-05-10T13:38:49;17.60;99.90
48752;DHT22;34544;48.836;9.174;2023-05-10T13:41:15;17.50;99.90
48752;DHT22;34544;48.836;9.174;2023-05-10T13:43:41;17.60;99.90
48752;DHT22;34544;48.836;9.174;2023-05-10T13:46:06;17.80;99.90
48752;DHT22;34544;48.836;9.174;2023-05-10T13:48:32;17.90;99.90
48752;DHT22;34544;48.836;9.174;2023-05-10T13:50:58;17.90;99.90
48752;DHT22;34544;48.836;9.174;2023-05-10T13:53:24;17.90;99.90
48752;DHT22;34544;48.836;9.174;2023-05-10T13:55:50;17.90;99.90
48752;DHT22;34544;48.836;9.174;2023-05-10T13:58:15;17.80;99.90
48752;DHT22;34544;48.836;9.174;2023-05-10T14:00:41;17.90;99.90
48752;DHT22;34544;48.836;9.174;2023-05-10T14:03:07;17.90;99.90
48752;DHT22;34544;48.836;9.174;2023-05-10T14:05:34;17.90;99.90
48752;DHT22;34544;48.836;9.174;2023-05-10T14:08:00;17.70;99.90
48752;DHT22;34544;48.836;9.174;2023-05-10T14:10:26;17.60;99.90
48752;DHT22;34544;48.836;9.174;2023-05-10T14:12:51;17.70;99.90
48752;DHT22;34544;48.836;9.174;2023-05-10T14:15:17;17.70;99.90
48752;DHT22;34544;48.836;9.174;2023-05-10T14:17:43;17.80;99.90
48752;DHT22;34544;48.836;9.174;2023-05-10T14:20:09;17.80;99.90
48752;DHT22;34544;48.836;9.174;2023-05-10T14:22:35;17.90;99.90
48752;DHT22;34544;48.836;9.174;2023-05-10T14:25:00;18.00;99.90
48752;DHT22;34544;48.836;9.174;2023-05-10T14:27:26;18.10;99.90
48752;DHT22;34544;48.836;9.174;2023-05-10T14:29:52;18.10;99.90
48752;DHT22;34544;48.836;9.174;2023-05-10T14:32:18;18.20;99.90
48752;DHT22;34544;48.836;9.174;2023-05-10T14:34:44;18.30;99.90
48752;DHT22;34544;48.836;9.174;2023-05-10T14:37:11;18.30;99.90
48752;DHT22;34544;48.836;9.174;2023-05-10T14:39:37;18.30;99.90
48752;DHT22;34544;48.836;9.174;2023-05-10T14:42:03;18.40;99.90
48752;DHT22;34544;48.836;9.174;2023-05-10T14:44:29;18.40;99.90
48752;DHT22;34544;48.836;9.174;2023-05-10T14:46:55;18.40;99.90
48752;DHT22;34544;48.836;9.174;2023-05-10T14:49:21;18.40;99.90
48752;DHT22;34544;48.836;9.174;2023-05-10T14:51:48;18.50;99.90
48752;DHT22;34544;48.836;9.174;2023-05-10T14:54:14;18.50;99.90
48752;DHT22;34544;48.836;9.174;2023-05-10T14:56:39;18.50;99.90
48752;DHT22;34544;48.836;9.174;2023-05-10T14:59:07;18.40;99.90
48752;DHT22;34544;48.836;9.174;2023-05-10T15:01:33;18.40;99.90
48752;DHT22;34544;48.836;9.174;2023-05-10T15:04:00;18.60;99.90
48752;DHT22;34544;48.836;9.174;2023-05-10T15:06:35;18.70;99.90
48752;DHT22;34544;48.836;9.174;2023-05-10T15:09:02;18.80;99.90
48752;DHT22;34544;48.836;9.174;2023-05-10T15:11:31;19.00;99.90
48752;DHT22;34544;48.836;9.174;2023-05-10T15:13:57;19.00;99.90
48752;DHT22;34544;48.836;9.174;2023-05-10T15:16:23;19.00;99.90
48752;DHT22;34544;48.836;9.174;2023-05-10T15:18:48;18.90;99.90
48752;DHT22;34544;48.836;9.174;2023-05-10T15:21:14;19.00;99.90
48752;DHT22;34544;48.836;9.174;2023-05-10T15:23:40;18.90;99.90
48752;DHT22;34544;48.836;9.174;2023-05-10T15:26:06;18.90;99.90
48752;DHT22;34544;48.836;9.174;2023-05-10T15:28:31;18.80;99.90
48752;DHT22;34544;48.836;9.174;2023-05-10T15:30:57;18.70;99.90
48752;DHT22;34544;48.836;9.174;2023-05-10T15:33:23;18.60;99.90
48752;DHT22;34544;48.836;9.174;2023-05-10T15:35:48;18.40;99.90
48752;DHT22;34544;48.836;9.174;2023-05-10T15:38:14;18.40;99.90
48752;DHT22;34544;48.836;9.174;2023-05-10T15:40:40;18.40;99.90
48752;DHT22;34544;48.836;9.174;2023-05-10T15:43:05;18.50;99.90
48752;DHT22;34544;48.836;9.174;2023-05-10T15:45:31;18.60;99.90
48752;DHT22;34544;48.836;9.174;2023-05-10T15:47:58;18.70;99.90
48752;DHT22;34544;48.836;9.174;2023-05-10T15:50:25;18.70;99.90
48752;DHT22;34544;48.836;9.174;2023-05-10T15:52:51;18.70;99.90
48752;DHT22;34544;48.836;9.174;2023-05-10T15:55:18;18.60;99.90
48752;DHT22;34544;48.836;9.174;2023-05-10T15:57:44;18.70;99.90
48752;DHT22;34544;48.836;9.174;2023-05-10T16:00:11;18.70;99.90
48752;DHT22;34544;48.836;9.174;2023-05-10T16:02:38;18.80;99.90
48752;DHT22;34544;48.836;9.174;2023-05-10T16:05:04;18.80;99.90
48752;DHT22;34544;48.836;9.174;2023-05-10T16:07:30;18.90;99.90
48752;DHT22;34544;48.836;9.174;2023-05-10T16:09:56;18.90;99.90
48752;DHT22;34544;48.836;9.174;2023-05-10T16:12:21;18.90;99.90